sensor_id;sensor_type;location;lat;lon;timestamp;P1;durP1;ratioP1;P2;durP2;ratioP2
86203;SDS011;76856;42.356;24.732;2024-03-22T00:01:57;11.82;;;5.38;;
86203;SDS011;76856;42.356;24.732;2024-03-22T00:04:23;11.18;;;5.30;;
86203;SDS011;76856;42.356;24.732;2024-03-22T00:06:49;13.07;;;5.70;;
86203;SDS011;76856;42.356;24.732;2024-03-22T00:09:15;8.38;;;5.20;;
86203;SDS011;76856;42.356;24.732;2024-03-22T00:11:42;8.35;;;5.95;;
86203;SDS011;76856;42.356;24.732;2024-03-22T00:14:08;9.95;;;5.20;;
86203;SDS011;76856;42.356;24.732;2024-03-22T00:16:35;8.90;;;5.20;;
86203;SDS011;76856;42.356;24.732;2024-03-22T00:19:01;22.40;;;6.72;;
86203;SDS011;76856;42.356;24.732;2024-03-22T00:21:27;10.15;;;6.65;;
86203;SDS011;76856;42.356;24.732;2024-03-22T00:23:53;11.77;;;5.97;;
86203;SDS011;76856;42.356;24.732;2024-03-22T00:26:19;12.23;;;5.13;;
86203;SDS011;76856;42.356;24.732;2024-03-22T00:28:44;11.50;;;5.75;;
86203;SDS011;76856;42.356;24.732;2024-03-22T00:31:10;7.90;;;5.38;;
86203;SDS011;76856;42.356;24.732;2024-03-22T00:33:35;9.05;;;5.88;;
86203;SDS011;76856;42.356;24.732;2024-03-22T00:36:01;10.57;;;6.03;;
86203;SDS011;76856;42.356;24.732;2024-03-22T00:38:27;18.63;;;5.97;;
86203;SDS011;76856;42.356;24.732;2024-03-22T00:40:52;10.13;;;6.80;;
86203;SDS011;76856;42.356;24.732;2024-03-22T00:43:19;12.23;;;5.88;;
86203;SDS011;76856;42.356;24.732;2024-03-22T00:45:45;9.88;;;5.32;;
86203;SDS011;76856;42.356;24.732;2024-03-22T00:48:11;10.73;;;5.32;;
86203;SDS011;76856;42.356;24.732;2024-03-22T00:50:37;11.88;;;6.40;;
86203;SDS011;76856;42.356;24.732;2024-03-22T00:53:02;9.43;;;5.40;;
86203;SDS011;76856;42.356;24.732;2024-03-22T00:55:29;10.93;;;6.60;;
86203;SDS011;76856;42.356;24.732;2024-03-22T00:57:54;10.48;;;5.30;;
86203;SDS011;76856;42.356;24.732;2024-03-22T01:00:20;10.38;;;6.45;;
86203;SDS011;76856;42.356;24.732;2024-03-22T01:02:46;11.98;;;5.72;;
86203;SDS011;76856;42.356;24.732;2024-03-22T01:05:11;13.45;;;6.65;;
86203;SDS011;76856;42.356;24.732;2024-03-22T01:07:37;14.65;;;7.95;;
86203;SDS011;76856;42.356;24.732;2024-03-22T01:10:03;21.15;;;6.70;;
86203;SDS011;76856;42.356;24.732;2024-03-22T01:12:29;11.43;;;6.68;;
86203;SDS011;76856;42.356;24.732;2024-03-22T01:14:56;13.35;;;6.00;;
86203;SDS011;76856;42.356;24.732;2024-03-22T01:17:21;19.58;;;6.30;;
86203;SDS011;76856;42.356;24.732;2024-03-22T01:19:47;15.30;;;6.47;;
86203;SDS011;76856;42.356;24.732;2024-03-22T01:22:12;9.38;;;6.05;;
86203;SDS011;76856;42.356;24.732;2024-03-22T01:24:38;13.13;;;7.25;;
86203;SDS011;76856;42.356;24.732;2024-03-22T01:27:03;13.55;;;7.30;;
86203;SDS011;76856;42.356;24.732;2024-03-22T01:29:29;22.52;;;10.23;;
86203;SDS011;76856;42.356;24.732;2024-03-22T01:31:57;29.17;;;14.90;;
86203;SDS011;76856;42.356;24.732;2024-03-22T01:34:23;39.80;;;17.45;;
86203;SDS011;76856;42.356;24.732;2024-03-22T01:36:49;55.47;;;21.58;;
86203;SDS011;76856;42.356;24.732;2024-03-22T01:39:15;81.80;;;29.70;;
86203;SDS011;76856;42.356;24.732;2024-03-22T01:41:43;95.28;;;35.65;;
86203;SDS011;76856;42.356;24.732;2024-03-22T01:44:09;124.63;;;38.83;;
86203;SDS011;76856;42.356;24.732;2024-03-22T01:46:35;91.95;;;35.17;;
86203;SDS011;76856;42.356;24.732;2024-03-22T01:49:01;95.38;;;36.25;;
86203;SDS011;76856;42.356;24.732;2024-03-22T01:51:27;100.85;;;38.45;;
86203;SDS011;76856;42.356;24.732;2024-03-22T01:53:52;92.57;;;37.47;;
86203;SDS011;76856;42.356;24.732;2024-03-22T01:56:19;116.05;;;40.13;;
86203;SDS011;76856;42.356;24.732;2024-03-22T01:58:45;90.50;;;38.72;;
86203;SDS011;76856;42.356;24.732;2024-03-22T02:01:11;97.55;;;36.72;;
86203;SDS011;76856;42.356;24.732;2024-03-22T02:03:37;111.97;;;42.58;;
86203;SDS011;76856;42.356;24.732;2024-03-22T02:06:02;90.72;;;37.08;;
86203;SDS011;76856;42.356;24.732;2024-03-22T02:08:28;85.95;;;31.27;;
86203;SDS011;76856;42.356;24.732;2024-03-22T02:10:54;72.70;;;28.33;;
86203;SDS011;76856;42.356;24.732;2024-03-22T02:13:19;71.93;;;26.33;;
86203;SDS011;76856;42.356;24.732;2024-03-22T02:15:45;84.82;;;33.55;;
86203;SDS011;76856;42.356;24.732;2024-03-22T02:18:10;78.13;;;31.98;;
86203;SDS011;76856;42.356;24.732;2024-03-22T02:20:36;78.05;;;29.55;;
86203;SDS011;76856;42.356;24.732;2024-03-22T02:23:01;67.85;;;29.13;;
86203;SDS011;76856;42.356;24.732;2024-03-22T02:25:27;82.30;;;30.35;;
86203;SDS011;76856;42.356;24.732;2024-03-22T02:27:52;98.18;;;36.08;;
86203;SDS011;76856;42.356;24.732;2024-03-22T02:30:18;77.95;;;30.73;;
86203;SDS011;76856;42.356;24.732;2024-03-22T02:32:44;93.47;;;34.95;;
86203;SDS011;76856;42.356;24.732;2024-03-22T02:35:09;93.13;;;34.25;;
86203;SDS011;76856;42.356;24.732;2024-03-22T02:37:35;84.22;;;34.50;;
86203;SDS011;76856;42.356;24.732;2024-03-22T02:40:01;75.85;;;29.48;;
86203;SDS011;76856;42.356;24.732;2024-03-22T02:42:26;77.28;;;30.90;;
86203;SDS011;76856;42.356;24.732;2024-03-22T02:44:52;39.97;;;20.48;;
86203;SDS011;76856;42.356;24.732;2024-03-22T02:47:18;56.00;;;23.40;;
86203;SDS011;76856;42.356;24.732;2024-03-22T02:49:43;34.17;;;20.30;;
86203;SDS011;76856;42.356;24.732;2024-03-22T02:52:09;36.53;;;17.85;;
86203;SDS011;76856;42.356;24.732;2024-03-22T02:54:35;36.13;;;15.98;;
86203;SDS011;76856;42.356;24.732;2024-03-22T02:57:00;25.88;;;14.68;;
86203;SDS011;76856;42.356;24.732;2024-03-22T02:59:27;36.78;;;15.40;;
86203;SDS011;76856;42.356;24.732;2024-03-22T03:01:53;28.55;;;14.20;;
86203;SDS011;76856;42.356;24.732;2024-03-22T03:04:19;28.95;;;12.57;;
86203;SDS011;76856;42.356;24.732;2024-03-22T03:06:45;25.50;;;11.50;;
86203;SDS011;76856;42.356;24.732;2024-03-22T03:09:13;25.90;;;11.07;;
86203;SDS011;76856;42.356;24.732;2024-03-22T03:11:39;23.17;;;11.43;;
86203;SDS011;76856;42.356;24.732;2024-03-22T03:14:05;22.80;;;10.60;;
86203;SDS011;76856;42.356;24.732;2024-03-22T03:16:31;22.08;;;11.70;;
86203;SDS011;76856;42.356;24.732;2024-03-22T03:18:56;25.95;;;10.35;;
86203;SDS011;76856;42.356;24.732;2024-03-22T03:21:22;24.30;;;10.93;;
86203;SDS011;76856;42.356;24.732;2024-03-22T03:23:47;25.48;;;10.85;;
86203;SDS011;76856;42.356;24.732;2024-03-22T03:26:13;19.02;;;9.55;;
86203;SDS011;76856;42.356;24.732;2024-03-22T03:28:38;23.90;;;11.25;;
86203;SDS011;76856;42.356;24.732;2024-03-22T03:31:04;29.63;;;13.82;;
86203;SDS011;76856;42.356;24.732;2024-03-22T03:33:30;31.55;;;12.38;;
86203;SDS011;76856;42.356;24.732;2024-03-22T03:35:55;29.13;;;13.60;;
86203;SDS011;76856;42.356;24.732;2024-03-22T03:38:21;25.10;;;13.02;;
86203;SDS011;76856;42.356;24.732;2024-03-22T03:40:47;34.15;;;14.88;;
86203;SDS011;76856;42.356;24.732;2024-03-22T03:43:13;34.60;;;13.77;;
86203;SDS011;76856;42.356;24.732;2024-03-22T03:45:39;50.92;;;15.68;;
86203;SDS011;76856;42.356;24.732;2024-03-22T03:48:05;36.67;;;13.77;;
86203;SDS011;76856;42.356;24.732;2024-03-22T03:50:30;29.05;;;15.45;;
86203;SDS011;76856;42.356;24.732;2024-03-22T03:52:56;31.13;;;14.00;;
86203;SDS011;76856;42.356;24.732;2024-03-22T03:55:22;39.80;;;15.65;;
86203;SDS011;76856;42.356;24.732;2024-03-22T03:57:51;44.80;;;17.20;;
86203;SDS011;76856;42.356;24.732;2024-03-22T04:00:18;44.40;;;17.95;;
86203;SDS011;76856;42.356;24.732;2024-03-22T04:02:44;40.88;;;15.82;;
86203;SDS011;76856;42.356;24.732;2024-03-22T04:05:10;32.72;;;13.90;;
86203;SDS011;76856;42.356;24.732;2024-03-22T04:07:36;33.70;;;12.02;;
86203;SDS011;76856;42.356;24.732;2024-03-22T04:10:01;40.25;;;17.23;;
86203;SDS011;76856;42.356;24.732;2024-03-22T04:12:28;41.97;;;16.55;;
86203;SDS011;76856;42.356;24.732;2024-03-22T04:14:54;32.63;;;16.48;;
86203;SDS011;76856;42.356;24.732;2024-03-22T04:17:20;41.50;;;16.13;;
86203;SDS011;76856;42.356;24.732;2024-03-22T04:19:45;41.65;;;16.63;;
86203;SDS011;76856;42.356;24.732;2024-03-22T04:22:11;42.67;;;14.23;;
86203;SDS011;76856;42.356;24.732;2024-03-22T04:24:37;38.35;;;15.57;;
86203;SDS011;76856;42.356;24.732;2024-03-22T04:27:02;42.17;;;15.70;;
86203;SDS011;76856;42.356;24.732;2024-03-22T04:29:28;41.03;;;17.55;;
86203;SDS011;76856;42.356;24.732;2024-03-22T04:31:55;37.42;;;16.38;;
86203;SDS011;76856;42.356;24.732;2024-03-22T04:34:20;40.55;;;16.80;;
86203;SDS011;76856;42.356;24.732;2024-03-22T04:36:46;42.60;;;18.63;;
86203;SDS011;76856;42.356;24.732;2024-03-22T04:39:11;44.15;;;19.20;;
86203;SDS011;76856;42.356;24.732;2024-03-22T04:41:37;51.45;;;22.13;;
86203;SDS011;76856;42.356;24.732;2024-03-22T04:44:03;73.63;;;22.10;;
86203;SDS011;76856;42.356;24.732;2024-03-22T04:46:29;51.80;;;22.50;;
86203;SDS011;76856;42.356;24.732;2024-03-22T04:48:54;62.28;;;25.55;;
86203;SDS011;76856;42.356;24.732;2024-03-22T04:51:20;63.42;;;26.40;;
86203;SDS011;76856;42.356;24.732;2024-03-22T04:53:45;60.67;;;25.08;;
86203;SDS011;76856;42.356;24.732;2024-03-22T04:56:11;66.57;;;21.80;;
86203;SDS011;76856;42.356;24.732;2024-03-22T04:58:36;72.07;;;23.35;;
86203;SDS011;76856;42.356;24.732;2024-03-22T05:01:02;78.00;;;24.48;;
86203;SDS011;76856;42.356;24.732;2024-03-22T05:03:27;74.68;;;22.45;;
86203;SDS011;76856;42.356;24.732;2024-03-22T05:05:53;59.83;;;22.77;;
86203;SDS011;76856;42.356;24.732;2024-03-22T05:08:19;56.85;;;26.40;;
86203;SDS011;76856;42.356;24.732;2024-03-22T05:10:45;54.95;;;22.60;;
86203;SDS011;76856;42.356;24.732;2024-03-22T05:13:11;36.28;;;18.20;;
86203;SDS011;76856;42.356;24.732;2024-03-22T05:15:36;35.17;;;15.75;;
86203;SDS011;76856;42.356;24.732;2024-03-22T05:18:02;22.55;;;12.75;;
86203;SDS011;76856;42.356;24.732;2024-03-22T05:20:28;19.35;;;10.90;;
86203;SDS011;76856;42.356;24.732;2024-03-22T05:22:54;17.85;;;9.50;;
86203;SDS011;76856;42.356;24.732;2024-03-22T05:25:20;18.90;;;8.73;;
86203;SDS011;76856;42.356;24.732;2024-03-22T05:27:45;28.95;;;8.98;;
86203;SDS011;76856;42.356;24.732;2024-03-22T05:30:11;19.10;;;7.65;;
86203;SDS011;76856;42.356;24.732;2024-03-22T05:32:38;16.13;;;7.65;;
86203;SDS011;76856;42.356;24.732;2024-03-22T05:35:05;20.63;;;9.07;;
86203;SDS011;76856;42.356;24.732;2024-03-22T05:37:31;24.30;;;8.27;;
86203;SDS011;76856;42.356;24.732;2024-03-22T05:39:56;10.85;;;6.15;;
86203;SDS011;76856;42.356;24.732;2024-03-22T05:42:22;8.82;;;5.22;;
86203;SDS011;76856;42.356;24.732;2024-03-22T05:44:48;7.13;;;4.88;;
86203;SDS011;76856;42.356;24.732;2024-03-22T05:47:13;8.70;;;4.90;;
86203;SDS011;76856;42.356;24.732;2024-03-22T05:49:39;32.13;;;8.50;;
86203;SDS011;76856;42.356;24.732;2024-03-22T05:52:05;20.42;;;7.00;;
86203;SDS011;76856;42.356;24.732;2024-03-22T05:54:30;15.30;;;7.72;;
86203;SDS011;76856;42.356;24.732;2024-03-22T05:56:56;11.85;;;6.63;;
86203;SDS011;76856;42.356;24.732;2024-03-22T05:59:22;20.60;;;8.15;;
86203;SDS011;76856;42.356;24.732;2024-03-22T06:01:47;9.40;;;5.40;;
86203;SDS011;76856;42.356;24.732;2024-03-22T06:04:13;12.50;;;7.03;;
86203;SDS011;76856;42.356;24.732;2024-03-22T06:06:38;14.68;;;7.45;;
86203;SDS011;76856;42.356;24.732;2024-03-22T06:09:04;13.75;;;7.60;;
86203;SDS011;76856;42.356;24.732;2024-03-22T06:11:33;21.13;;;9.35;;
86203;SDS011;76856;42.356;24.732;2024-03-22T06:13:59;21.70;;;7.90;;
86203;SDS011;76856;42.356;24.732;2024-03-22T06:16:25;12.25;;;6.95;;
86203;SDS011;76856;42.356;24.732;2024-03-22T06:18:51;14.02;;;5.80;;
86203;SDS011;76856;42.356;24.732;2024-03-22T06:21:16;12.82;;;6.45;;
86203;SDS011;76856;42.356;24.732;2024-03-22T06:23:50;11.73;;;5.90;;
86203;SDS011;76856;42.356;24.732;2024-03-22T06:26:16;12.50;;;6.90;;
86203;SDS011;76856;42.356;24.732;2024-03-22T06:28:41;18.05;;;7.32;;
86203;SDS011;76856;42.356;24.732;2024-03-22T06:31:07;14.13;;;7.28;;
86203;SDS011;76856;42.356;24.732;2024-03-22T06:33:33;14.13;;;6.78;;
86203;SDS011;76856;42.356;24.732;2024-03-22T06:35:58;15.38;;;7.70;;
86203;SDS011;76856;42.356;24.732;2024-03-22T06:38:25;21.98;;;7.20;;
86203;SDS011;76856;42.356;24.732;2024-03-22T06:40:50;16.50;;;7.85;;
86203;SDS011;76856;42.356;24.732;2024-03-22T06:43:16;19.00;;;6.63;;
86203;SDS011;76856;42.356;24.732;2024-03-22T06:45:42;19.00;;;6.50;;
86203;SDS011;76856;42.356;24.732;2024-03-22T06:48:07;11.82;;;7.15;;
86203;SDS011;76856;42.356;24.732;2024-03-22T06:50:33;11.10;;;5.40;;
86203;SDS011;76856;42.356;24.732;2024-03-22T06:52:59;10.50;;;6.25;;
86203;SDS011;76856;42.356;24.732;2024-03-22T06:55:25;9.00;;;5.38;;
86203;SDS011;76856;42.356;24.732;2024-03-22T06:57:50;14.38;;;5.45;;
86203;SDS011;76856;42.356;24.732;2024-03-22T07:00:17;14.02;;;6.50;;
86203;SDS011;76856;42.356;24.732;2024-03-22T07:02:43;12.43;;;6.05;;
86203;SDS011;76856;42.356;24.732;2024-03-22T07:05:09;10.70;;;6.35;;
86203;SDS011;76856;42.356;24.732;2024-03-22T07:07:35;12.48;;;6.80;;
86203;SDS011;76856;42.356;24.732;2024-03-22T07:10:05;21.83;;;10.63;;
86203;SDS011;76856;42.356;24.732;2024-03-22T07:12:34;9.82;;;6.03;;
86203;SDS011;76856;42.356;24.732;2024-03-22T07:15:00;9.57;;;5.93;;
86203;SDS011;76856;42.356;24.732;2024-03-22T07:17:26;11.32;;;5.30;;
86203;SDS011;76856;42.356;24.732;2024-03-22T07:19:52;15.43;;;5.95;;
86203;SDS011;76856;42.356;24.732;2024-03-22T07:22:18;14.02;;;7.47;;
86203;SDS011;76856;42.356;24.732;2024-03-22T07:24:44;11.75;;;6.03;;
86203;SDS011;76856;42.356;24.732;2024-03-22T07:27:10;19.52;;;7.35;;
86203;SDS011;76856;42.356;24.732;2024-03-22T07:29:36;10.25;;;5.15;;
86203;SDS011;76856;42.356;24.732;2024-03-22T07:32:01;9.10;;;5.18;;
86203;SDS011;76856;42.356;24.732;2024-03-22T07:34:28;8.52;;;4.93;;
86203;SDS011;76856;42.356;24.732;2024-03-22T07:36:54;13.40;;;5.30;;
86203;SDS011;76856;42.356;24.732;2024-03-22T07:39:19;8.75;;;5.18;;
86203;SDS011;76856;42.356;24.732;2024-03-22T07:41:45;10.45;;;6.03;;
86203;SDS011;76856;42.356;24.732;2024-03-22T07:44:11;9.25;;;5.60;;
86203;SDS011;76856;42.356;24.732;2024-03-22T07:46:36;7.75;;;5.05;;
86203;SDS011;76856;42.356;24.732;2024-03-22T07:49:02;8.60;;;5.72;;
86203;SDS011;76856;42.356;24.732;2024-03-22T07:51:29;8.50;;;5.40;;
86203;SDS011;76856;42.356;24.732;2024-03-22T07:53:55;20.17;;;4.95;;
86203;SDS011;76856;42.356;24.732;2024-03-22T07:56:21;9.63;;;5.55;;
86203;SDS011;76856;42.356;24.732;2024-03-22T07:58:47;12.93;;;6.35;;
86203;SDS011;76856;42.356;24.732;2024-03-22T08:01:13;12.90;;;6.72;;
86203;SDS011;76856;42.356;24.732;2024-03-22T08:03:38;9.38;;;4.55;;
86203;SDS011;76856;42.356;24.732;2024-03-22T08:06:04;14.07;;;6.25;;
86203;SDS011;76856;42.356;24.732;2024-03-22T08:08:30;13.35;;;6.30;;
86203;SDS011;76856;42.356;24.732;2024-03-22T08:10:56;13.82;;;6.43;;
86203;SDS011;76856;42.356;24.732;2024-03-22T08:13:21;8.38;;;5.68;;
86203;SDS011;76856;42.356;24.732;2024-03-22T08:15:47;11.63;;;4.72;;
86203;SDS011;76856;42.356;24.732;2024-03-22T08:18:12;9.77;;;5.20;;
86203;SDS011;76856;42.356;24.732;2024-03-22T08:20:38;11.35;;;6.72;;
86203;SDS011;76856;42.356;24.732;2024-03-22T08:23:04;10.55;;;5.10;;
86203;SDS011;76856;42.356;24.732;2024-03-22T08:25:30;8.32;;;5.38;;
86203;SDS011;76856;42.356;24.732;2024-03-22T08:27:56;17.00;;;5.47;;
86203;SDS011;76856;42.356;24.732;2024-03-22T08:30:23;10.75;;;4.55;;
86203;SDS011;76856;42.356;24.732;2024-03-22T08:32:50;6.07;;;4.13;;
86203;SDS011;76856;42.356;24.732;2024-03-22T08:35:15;10.88;;;5.05;;
86203;SDS011;76856;42.356;24.732;2024-03-22T08:37:41;6.53;;;3.97;;
86203;SDS011;76856;42.356;24.732;2024-03-22T08:40:07;5.00;;;3.60;;
86203;SDS011;76856;42.356;24.732;2024-03-22T08:42:33;7.43;;;3.63;;
86203;SDS011;76856;42.356;24.732;2024-03-22T08:44:58;10.10;;;3.92;;
86203;SDS011;76856;42.356;24.732;2024-03-22T08:47:24;8.98;;;4.53;;
86203;SDS011;76856;42.356;24.732;2024-03-22T08:49:50;9.05;;;4.18;;
86203;SDS011;76856;42.356;24.732;2024-03-22T08:52:16;5.78;;;3.42;;
86203;SDS011;76856;42.356;24.732;2024-03-22T08:54:41;6.32;;;3.55;;
86203;SDS011;76856;42.356;24.732;2024-03-22T08:57:07;7.25;;;4.53;;
86203;SDS011;76856;42.356;24.732;2024-03-22T08:59:33;12.15;;;4.07;;
86203;SDS011;76856;42.356;24.732;2024-03-22T09:01:58;8.23;;;4.90;;
86203;SDS011;76856;42.356;24.732;2024-03-22T09:04:26;8.70;;;4.50;;
86203;SDS011;76856;42.356;24.732;2024-03-22T09:06:53;7.85;;;3.75;;
86203;SDS011;76856;42.356;24.732;2024-03-22T09:09:19;5.88;;;3.40;;
86203;SDS011;76856;42.356;24.732;2024-03-22T09:11:46;7.07;;;3.40;;
86203;SDS011;76856;42.356;24.732;2024-03-22T09:14:12;5.28;;;2.60;;
86203;SDS011;76856;42.356;24.732;2024-03-22T09:16:37;3.03;;;2.60;;
86203;SDS011;76856;42.356;24.732;2024-03-22T09:19:03;3.58;;;1.77;;
86203;SDS011;76856;42.356;24.732;2024-03-22T09:21:29;4.05;;;3.00;;
86203;SDS011;76856;42.356;24.732;2024-03-22T09:23:56;3.33;;;2.45;;
86203;SDS011;76856;42.356;24.732;2024-03-22T09:26:22;3.20;;;2.10;;
86203;SDS011;76856;42.356;24.732;2024-03-22T09:28:48;4.50;;;2.92;;
86203;SDS011;76856;42.356;24.732;2024-03-22T09:31:13;3.63;;;2.67;;
86203;SDS011;76856;42.356;24.732;2024-03-22T09:33:39;2.47;;;2.20;;
86203;SDS011;76856;42.356;24.732;2024-03-22T09:36:05;5.20;;;3.42;;
86203;SDS011;76856;42.356;24.732;2024-03-22T09:38:31;4.57;;;3.28;;
86203;SDS011;76856;42.356;24.732;2024-03-22T09:40:58;9.00;;;2.97;;
86203;SDS011;76856;42.356;24.732;2024-03-22T09:43:23;5.90;;;2.97;;
86203;SDS011;76856;42.356;24.732;2024-03-22T09:45:52;7.22;;;3.60;;
86203;SDS011;76856;42.356;24.732;2024-03-22T09:48:19;3.15;;;2.35;;
86203;SDS011;76856;42.356;24.732;2024-03-22T09:50:48;7.95;;;3.03;;
86203;SDS011;76856;42.356;24.732;2024-03-22T09:53:18;14.50;;;3.70;;
86203;SDS011;76856;42.356;24.732;2024-03-22T09:55:45;9.48;;;3.22;;
86203;SDS011;76856;42.356;24.732;2024-03-22T09:58:12;6.35;;;2.97;;
86203;SDS011;76856;42.356;24.732;2024-03-22T10:00:40;19.17;;;2.97;;
86203;SDS011;76856;42.356;24.732;2024-03-22T10:03:05;4.88;;;2.72;;
86203;SDS011;76856;42.356;24.732;2024-03-22T10:05:32;5.18;;;2.97;;
86203;SDS011;76856;42.356;24.732;2024-03-22T10:07:59;6.32;;;2.85;;
86203;SDS011;76856;42.356;24.732;2024-03-22T10:10:25;3.13;;;2.35;;
86203;SDS011;76856;42.356;24.732;2024-03-22T10:12:51;4.10;;;2.20;;
86203;SDS011;76856;42.356;24.732;2024-03-22T10:15:18;3.47;;;2.05;;
86203;SDS011;76856;42.356;24.732;2024-03-22T10:17:45;8.77;;;2.88;;
86203;SDS011;76856;42.356;24.732;2024-03-22T10:20:14;3.88;;;2.38;;
86203;SDS011;76856;42.356;24.732;2024-03-22T10:22:43;3.00;;;2.10;;
86203;SDS011;76856;42.356;24.732;2024-03-22T10:25:13;3.72;;;2.63;;
86203;SDS011;76856;42.356;24.732;2024-03-22T10:27:39;9.23;;;3.60;;
86203;SDS011;76856;42.356;24.732;2024-03-22T10:30:08;3.85;;;2.40;;
86203;SDS011;76856;42.356;24.732;2024-03-22T10:32:38;13.60;;;10.10;;
86203;SDS011;76856;42.356;24.732;2024-03-22T10:35:03;5.10;;;4.20;;
86203;SDS011;76856;42.356;24.732;2024-03-22T10:37:32;3.13;;;2.45;;
86203;SDS011;76856;42.356;24.732;2024-03-22T10:40:02;3.92;;;2.72;;
86203;SDS011;76856;42.356;24.732;2024-03-22T10:42:35;2.97;;;2.42;;
86203;SDS011;76856;42.356;24.732;2024-03-22T10:45:03;5.35;;;2.92;;
86203;SDS011;76856;42.356;24.732;2024-03-22T10:47:31;7.63;;;2.60;;
86203;SDS011;76856;42.356;24.732;2024-03-22T10:55:22;4.30;;;2.65;;
86203;SDS011;76856;42.356;24.732;2024-03-22T10:57:56;6.65;;;2.25;;
86203;SDS011;76856;42.356;24.732;2024-03-22T11:00:33;3.53;;;1.88;;
86203;SDS011;76856;42.356;24.732;2024-03-22T11:03:03;4.50;;;1.88;;
86203;SDS011;76856;42.356;24.732;2024-03-22T11:05:29;4.28;;;2.83;;
86203;SDS011;76856;42.356;24.732;2024-03-22T11:07:59;3.45;;;2.33;;
86203;SDS011;76856;42.356;24.732;2024-03-22T11:10:31;3.08;;;2.28;;
86203;SDS011;76856;42.356;24.732;2024-03-22T11:13:04;6.22;;;2.75;;
86203;SDS011;76856;42.356;24.732;2024-03-22T11:15:32;2.95;;;2.10;;
86203;SDS011;76856;42.356;24.732;2024-03-22T11:17:58;4.22;;;2.55;;
86203;SDS011;76856;42.356;24.732;2024-03-22T11:20:24;3.35;;;2.20;;
86203;SDS011;76856;42.356;24.732;2024-03-22T11:22:51;3.50;;;2.30;;
86203;SDS011;76856;42.356;24.732;2024-03-22T11:25:17;7.28;;;2.58;;
86203;SDS011;76856;42.356;24.732;2024-03-22T11:27:45;3.47;;;2.30;;
86203;SDS011;76856;42.356;24.732;2024-03-22T11:30:11;2.70;;;1.85;;
86203;SDS011;76856;42.356;24.732;2024-03-22T11:32:37;2.72;;;1.83;;
86203;SDS011;76856;42.356;24.732;2024-03-22T11:35:12;3.58;;;2.70;;
86203;SDS011;76856;42.356;24.732;2024-03-22T11:37:39;5.35;;;2.53;;
86203;SDS011;76856;42.356;24.732;2024-03-22T11:40:06;2.95;;;2.17;;
86203;SDS011;76856;42.356;24.732;2024-03-22T11:42:38;3.40;;;2.03;;
86203;SDS011;76856;42.356;24.732;2024-03-22T11:45:05;16.48;;;2.53;;
86203;SDS011;76856;42.356;24.732;2024-03-22T11:47:34;1.98;;;1.60;;
86203;SDS011;76856;42.356;24.732;2024-03-22T11:50:01;2.40;;;1.88;;
86203;SDS011;76856;42.356;24.732;2024-03-22T11:52:27;2.47;;;1.60;;
86203;SDS011;76856;42.356;24.732;2024-03-22T11:54:53;4.07;;;2.25;;
86203;SDS011;76856;42.356;24.732;2024-03-22T11:57:22;4.38;;;2.17;;
86203;SDS011;76856;42.356;24.732;2024-03-22T11:59:48;8.10;;;2.30;;
86203;SDS011;76856;42.356;24.732;2024-03-22T12:02:14;3.50;;;2.22;;
86203;SDS011;76856;42.356;24.732;2024-03-22T12:04:41;6.18;;;2.53;;
86203;SDS011;76856;42.356;24.732;2024-03-22T12:07:13;2.53;;;2.08;;
86203;SDS011;76856;42.356;24.732;2024-03-22T12:09:39;2.70;;;2.10;;
86203;SDS011;76856;42.356;24.732;2024-03-22T12:12:09;6.63;;;1.90;;
86203;SDS011;76856;42.356;24.732;2024-03-22T12:14:36;2.97;;;1.85;;
86203;SDS011;76856;42.356;24.732;2024-03-22T12:17:02;2.50;;;1.92;;
86203;SDS011;76856;42.356;24.732;2024-03-22T12:19:28;3.45;;;2.00;;
86203;SDS011;76856;42.356;24.732;2024-03-22T12:21:54;2.50;;;1.83;;
86203;SDS011;76856;42.356;24.732;2024-03-22T12:24:20;2.75;;;2.00;;
86203;SDS011;76856;42.356;24.732;2024-03-22T12:26:46;2.30;;;1.90;;
86203;SDS011;76856;42.356;24.732;2024-03-22T12:29:12;2.75;;;1.80;;
86203;SDS011;76856;42.356;24.732;2024-03-22T12:31:38;1.70;;;1.60;;
86203;SDS011;76856;42.356;24.732;2024-03-22T12:34:04;4.55;;;2.63;;
86203;SDS011;76856;42.356;24.732;2024-03-22T12:36:29;4.07;;;2.20;;
86203;SDS011;76856;42.356;24.732;2024-03-22T12:38:55;7.10;;;1.95;;
86203;SDS011;76856;42.356;24.732;2024-03-22T12:41:20;2.47;;;1.95;;
86203;SDS011;76856;42.356;24.732;2024-03-22T12:43:46;7.70;;;2.08;;
86203;SDS011;76856;42.356;24.732;2024-03-22T12:46:12;2.75;;;2.03;;
86203;SDS011;76856;42.356;24.732;2024-03-22T12:48:37;10.13;;;1.80;;
86203;SDS011;76856;42.356;24.732;2024-03-22T12:51:03;2.72;;;1.73;;
86203;SDS011;76856;42.356;24.732;2024-03-22T12:53:28;3.13;;;2.33;;
86203;SDS011;76856;42.356;24.732;2024-03-22T12:55:54;4.07;;;1.83;;
86203;SDS011;76856;42.356;24.732;2024-03-22T12:58:19;5.20;;;2.15;;
86203;SDS011;76856;42.356;24.732;2024-03-22T13:00:46;2.38;;;1.70;;
86203;SDS011;76856;42.356;24.732;2024-03-22T13:03:12;3.97;;;2.45;;
86203;SDS011;76856;42.356;24.732;2024-03-22T13:05:40;4.30;;;2.00;;
86203;SDS011;76856;42.356;24.732;2024-03-22T13:08:05;5.68;;;2.28;;
86203;SDS011;76856;42.356;24.732;2024-03-22T13:10:31;3.38;;;1.88;;
86203;SDS011;76856;42.356;24.732;2024-03-22T13:12:57;3.33;;;1.95;;
86203;SDS011;76856;42.356;24.732;2024-03-22T13:15:22;3.80;;;2.00;;
86203;SDS011;76856;42.356;24.732;2024-03-22T13:17:48;4.45;;;2.00;;
86203;SDS011;76856;42.356;24.732;2024-03-22T13:20:14;3.00;;;1.65;;
86203;SDS011;76856;42.356;24.732;2024-03-22T13:22:40;3.13;;;2.22;;
86203;SDS011;76856;42.356;24.732;2024-03-22T13:25:06;4.72;;;2.88;;
86203;SDS011;76856;42.356;24.732;2024-03-22T13:27:34;3.50;;;1.85;;
86203;SDS011;76856;42.356;24.732;2024-03-22T13:30:00;2.80;;;2.05;;
86203;SDS011;76856;42.356;24.732;2024-03-22T13:32:26;4.47;;;2.15;;
86203;SDS011;76856;42.356;24.732;2024-03-22T13:34:53;4.28;;;1.60;;
86203;SDS011;76856;42.356;24.732;2024-03-22T13:37:19;3.85;;;1.95;;
86203;SDS011;76856;42.356;24.732;2024-03-22T13:39:51;3.28;;;1.92;;
86203;SDS011;76856;42.356;24.732;2024-03-22T13:42:16;2.88;;;1.92;;
86203;SDS011;76856;42.356;24.732;2024-03-22T13:44:42;5.07;;;2.13;;
86203;SDS011;76856;42.356;24.732;2024-03-22T13:47:08;11.68;;;2.20;;
86203;SDS011;76856;42.356;24.732;2024-03-22T13:49:33;9.68;;;1.98;;
86203;SDS011;76856;42.356;24.732;2024-03-22T13:51:59;5.82;;;1.63;;
86203;SDS011;76856;42.356;24.732;2024-03-22T13:54:25;6.50;;;2.53;;
86203;SDS011;76856;42.356;24.732;2024-03-22T13:56:50;2.25;;;1.58;;
86203;SDS011;76856;42.356;24.732;2024-03-22T13:59:16;4.03;;;1.95;;
86203;SDS011;76856;42.356;24.732;2024-03-22T14:01:42;3.38;;;2.15;;
86203;SDS011;76856;42.356;24.732;2024-03-22T14:04:10;3.13;;;1.95;;
86203;SDS011;76856;42.356;24.732;2024-03-22T14:06:37;4.40;;;1.42;;
86203;SDS011;76856;42.356;24.732;2024-03-22T14:09:03;2.97;;;1.52;;
86203;SDS011;76856;42.356;24.732;2024-03-22T14:11:30;3.00;;;2.00;;
86203;SDS011;76856;42.356;24.732;2024-03-22T14:13:56;4.68;;;2.72;;
86203;SDS011;76856;42.356;24.732;2024-03-22T14:16:22;3.50;;;1.88;;
86203;SDS011;76856;42.356;24.732;2024-03-22T14:18:48;3.95;;;2.30;;
86203;SDS011;76856;42.356;24.732;2024-03-22T14:21:15;2.33;;;2.10;;
86203;SDS011;76856;42.356;24.732;2024-03-22T14:23:48;3.03;;;1.98;;